Time;durP1;ratioP1;P1;durP2;ratioP2;P2;SDS_P1;SDS_P2;PMS_P1;PMS_P2;Temp;Humidity;BMP_temperature;BMP_pressure;BME280_temperature;BME280_humidity;BME280_pressure;Samples;Min_cycle;Max_cycle;Signal;HPM_P1;HPM_P2
2023/09/11 00:01:02;;;;;;;14.68;7.60;;;;;;;;;;4906035;29;20052;-65
2023/09/11 00:03:30;;;;;;;10.73;6.53;;;;;;;;;;4908588;29;20568;-65
2023/09/11 00:06:04;;;;;;;15.45;6.93;;;;;;;;;;4906311;29;20127;-63
2023/09/11 00:08:35;;;;;;;10.05;6.05;;;;;;;;;;4906942;29;20071;-62
2023/09/11 00:11:04;;;;;;;11.15;6.93;;;;;;;;;;4908029;29;20074;-63
2023/09/11 00:13:32;;;;;;;11.27;6.68;;;;;;;;;;4904923;29;20107;-62
2023/09/11 00:16:01;;;;;;;12.15;6.70;;;;;;;;;;4906773;29;20075;-62
2023/09/11 00:18:29;;;;;;;10.60;6.68;;;;;;;;;;4907140;29;20573;-66
2023/09/11 00:20:58;;;;;;;9.48;6.45;;;;;;;;;;4907202;29;20056;-67
2023/09/11 00:23:26;;;;;;;8.60;6.43;;;;;;;;;;4905879;29;20360;-66
2023/09/11 00:25:56;;;;;;;11.10;7.07;;;;;;;;;;4908517;29;20044;-62
2023/09/11 00:28:24;;;;;;;10.60;6.85;;;;;;;;;;4907308;29;20087;-64
2023/09/11 00:30:53;;;;;;;10.57;7.22;;;;;;;;;;4905600;29;20055;-65
2023/09/11 00:33:21;;;;;;;14.45;7.07;;;;;;;;;;4907501;29;20056;-64
2023/09/11 00:36:34;;;;;;;11.65;6.65;;;;;;;;;;5164877;27;20404;-64
2023/09/11 00:39:03;;;;;;;9.68;6.55;;;;;;;;;;5157070;27;20503;-65
2023/09/11 00:41:31;;;;;;;10.95;6.72;;;;;;;;;;5099482;27;20064;-63
2023/09/11 00:44:00;;;;;;;10.63;6.95;;;;;;;;;;5082664;28;20173;-66
2023/09/11 00:46:30;;;;;;;11.25;6.88;;;;;;;;;;5090827;28;20078;-64
2023/09/11 00:49:01;;;;;;;12.13;6.95;;;;;;;;;;5093694;28;20040;-65
2023/09/11 00:51:30;;;;;;;11.32;7.53;;;;;;;;;;5090831;28;20068;-63
2023/09/11 00:53:59;;;;;;;15.18;7.40;;;;;;;;;;5095415;28;20036;-67
2023/09/11 00:56:28;;;;;;;11.27;6.93;;;;;;;;;;5094556;28;20064;-66
2023/09/11 00:58:57;;;;;;;9.98;6.13;;;;;;;;;;5091498;28;20048;-68
2023/09/11 01:01:25;;;;;;;11.95;6.93;;;;;;;;;;5096530;28;20337;-63
2023/09/11 01:03:53;;;;;;;11.25;6.85;;;;;;;;;;5097338;28;20052;-65
2023/09/11 01:06:22;;;;;;;10.88;7.07;;;;;;;;;;5094254;28;20547;-64
2023/09/11 01:08:54;;;;;;;11.57;6.53;;;;;;;;;;5091076;28;20066;-64
2023/09/11 01:11:25;;;;;;;9.93;6.80;;;;;;;;;;5096627;28;20040;-63
2023/09/11 01:13:53;;;;;;;10.95;6.78;;;;;;;;;;5090926;28;20514;-64
2023/09/11 01:16:25;;;;;;;11.35;7.22;;;;;;;;;;5091737;28;20052;-63
2023/09/11 01:18:55;;;;;;;13.23;7.05;;;;;;;;;;5091719;28;20058;-64
2023/09/11 01:21:47;;;;;;;9.63;6.60;;;;;;;;;;5089588;28;20121;-69
2023/09/11 01:24:23;;;;;;;8.55;6.45;;;;;;;;;;5077124;28;20440;-69
2023/09/11 01:27:07;;;;;;;12.02;6.65;;;;;;;;;;5090256;28;20127;-65
2023/09/11 01:29:39;;;;;;;13.88;6.53;;;;;;;;;;5093808;28;20104;-64
2023/09/11 01:32:09;;;;;;;11.80;6.93;;;;;;;;;;5091384;28;20054;-63
2023/09/11 01:34:37;;;;;;;11.60;7.22;;;;;;;;;;5083836;28;20061;-69
2023/09/11 01:37:05;;;;;;;9.30;6.22;;;;;;;;;;5080383;28;20125;-63
2023/09/11 01:39:34;;;;;;;11.15;5.88;;;;;;;;;;5077888;28;20072;-65
2023/09/11 01:42:07;;;;;;;10.57;5.97;;;;;;;;;;5075741;28;20143;-68
2023/09/11 01:44:46;;;;;;;9.90;6.18;;;;;;;;;;5078462;28;20040;-66
2023/09/11 01:47:15;;;;;;;9.07;5.97;;;;;;;;;;5067317;28;20056;-64
2023/09/11 01:49:43;;;;;;;11.63;7.05;;;;;;;;;;5059598;28;20080;-64
2023/09/11 01:52:12;;;;;;;11.02;6.18;;;;;;;;;;5063866;28;20567;-69
2023/09/11 01:54:41;;;;;;;10.43;6.20;;;;;;;;;;5064411;28;20041;-64
2023/09/11 01:57:09;;;;;;;8.52;5.90;;;;;;;;;;5064762;28;20044;-64
2023/09/11 01:59:39;;;;;;;9.27;6.25;;;;;;;;;;5059883;28;20146;-63
2023/09/11 02:02:07;;;;;;;9.55;6.25;;;;;;;;;;5062186;28;20539;-64
2023/09/11 02:04:36;;;;;;;10.57;5.95;;;;;;;;;;5063789;28;20579;-64
2023/09/11 02:07:04;;;;;;;10.48;6.60;;;;;;;;;;5065333;28;20556;-65
2023/09/11 02:09:33;;;;;;;10.30;6.25;;;;;;;;;;5064131;28;20095;-65
2023/09/11 02:12:01;;;;;;;10.93;6.00;;;;;;;;;;5062501;28;20136;-64
2023/09/11 02:14:29;;;;;;;9.90;6.32;;;;;;;;;;5061092;28;20585;-65
2023/09/11 02:17:02;;;;;;;9.60;6.25;;;;;;;;;;5063653;28;20053;-66
2023/09/11 02:19:31;;;;;;;11.95;6.38;;;;;;;;;;5061136;28;20044;-63
2023/09/11 02:22:00;;;;;;;13.15;6.47;;;;;;;;;;5064720;28;20095;-64
2023/09/11 02:24:28;;;;;;;8.68;6.18;;;;;;;;;;5062872;28;20049;-65
2023/09/11 02:26:57;;;;;;;11.88;6.30;;;;;;;;;;5064867;28;20500;-67
2023/09/11 02:29:25;;;;;;;9.55;5.95;;;;;;;;;;5065613;28;20072;-64
2023/09/11 02:31:54;;;;;;;10.80;6.13;;;;;;;;;;5063226;28;20044;-63
2023/09/11 02:34:24;;;;;;;8.30;5.70;;;;;;;;;;5063270;28;20072;-68
2023/09/11 02:36:52;;;;;;;10.50;6.38;;;;;;;;;;5065317;28;20064;-66
2023/09/11 02:39:21;;;;;;;10.23;6.40;;;;;;;;;;5063279;28;20698;-64
2023/09/11 02:41:49;;;;;;;12.75;7.25;;;;;;;;;;5084161;28;20111;-66
2023/09/11 02:44:18;;;;;;;9.52;5.82;;;;;;;;;;5088471;28;20675;-64
2023/09/11 02:46:46;;;;;;;9.82;6.55;;;;;;;;;;5090422;28;20055;-66
2023/09/11 02:49:14;;;;;;;11.10;6.32;;;;;;;;;;5083364;28;20059;-65
2023/09/11 02:51:44;;;;;;;9.90;6.45;;;;;;;;;;5083969;28;20110;-64
2023/09/11 02:54:12;;;;;;;13.00;6.15;;;;;;;;;;5086733;28;20044;-65
2023/09/11 02:56:41;;;;;;;10.82;6.75;;;;;;;;;;5084533;28;20076;-63
2023/09/11 02:59:09;;;;;;;9.57;6.18;;;;;;;;;;5082436;28;20128;-62
2023/09/11 03:01:38;;;;;;;10.55;6.57;;;;;;;;;;5087315;28;20044;-64
2023/09/11 03:04:06;;;;;;;9.90;6.43;;;;;;;;;;5083630;28;20066;-64
2023/09/11 03:06:35;;;;;;;9.02;6.15;;;;;;;;;;5083447;28;20743;-63
2023/09/11 03:09:05;;;;;;;14.15;6.45;;;;;;;;;;5083777;28;20292;-64
2023/09/11 03:11:33;;;;;;;10.50;6.32;;;;;;;;;;5088743;28;20134;-65
2023/09/11 03:14:02;;;;;;;11.60;6.68;;;;;;;;;;5085844;28;20039;-68
2023/09/11 03:16:30;;;;;;;12.55;6.85;;;;;;;;;;5092668;28;20048;-63
2023/09/11 03:18:59;;;;;;;10.25;6.80;;;;;;;;;;5086415;28;20106;-64
2023/09/11 03:21:27;;;;;;;10.55;6.88;;;;;;;;;;5085408;28;20044;-64
2023/09/11 03:23:55;;;;;;;11.52;6.30;;;;;;;;;;5086833;28;20481;-63
2023/09/11 03:26:25;;;;;;;12.23;7.20;;;;;;;;;;5085422;28;20487;-65
2023/09/11 03:28:53;;;;;;;10.40;6.38;;;;;;;;;;5086481;28;20044;-66
2023/09/11 03:31:22;;;;;;;9.88;6.22;;;;;;;;;;5087970;28;20117;-64
2023/09/11 03:33:50;;;;;;;11.20;5.95;;;;;;;;;;5087354;28;20051;-63
2023/09/11 03:36:19;;;;;;;10.65;6.60;;;;;;;;;;5082941;28;20566;-65
2023/09/11 03:38:48;;;;;;;8.85;6.25;;;;;;;;;;5088181;28;20055;-63
2023/09/11 03:41:16;;;;;;;10.57;6.90;;;;;;;;;;5086439;28;20050;-65
2023/09/11 03:43:46;;;;;;;11.18;6.85;;;;;;;;;;5088550;28;20473;-66
2023/09/11 03:46:15;;;;;;;11.25;6.50;;;;;;;;;;5085853;28;20052;-65
2023/09/11 03:48:43;;;;;;;12.32;6.68;;;;;;;;;;5085787;28;20105;-66
2023/09/11 03:51:13;;;;;;;11.20;6.82;;;;;;;;;;5086234;28;20070;-65
2023/09/11 03:53:44;;;;;;;11.82;6.43;;;;;;;;;;5082096;28;20048;-71
2023/09/11 03:56:12;;;;;;;11.90;6.65;;;;;;;;;;5084449;28;20048;-64
2023/09/11 03:58:41;;;;;;;14.82;7.35;;;;;;;;;;5084626;28;20158;-66
2023/09/11 04:01:11;;;;;;;12.45;6.93;;;;;;;;;;5084256;28;20127;-62
2023/09/11 04:03:42;;;;;;;10.88;6.78;;;;;;;;;;5089224;28;20481;-63
2023/09/11 04:06:10;;;;;;;13.35;6.72;;;;;;;;;;5087427;28;20044;-65
2023/09/11 04:08:39;;;;;;;12.35;6.78;;;;;;;;;;5084480;28;20040;-65
2023/09/11 04:11:07;;;;;;;11.05;6.68;;;;;;;;;;5082908;28;20053;-64
2023/09/11 04:13:36;;;;;;;12.27;6.88;;;;;;;;;;5079092;28;20040;-64
2023/09/11 04:16:05;;;;;;;10.55;6.75;;;;;;;;;;5079353;28;20044;-65
2023/09/11 04:18:34;;;;;;;14.63;7.68;;;;;;;;;;5083712;28;20758;-64
2023/09/11 04:21:03;;;;;;;10.20;6.80;;;;;;;;;;5084624;28;20065;-65
2023/09/11 04:23:32;;;;;;;10.93;6.63;;;;;;;;;;5087848;28;20067;-65
2023/09/11 04:26:00;;;;;;;9.95;6.40;;;;;;;;;;5082623;28;20058;-65
2023/09/11 04:28:28;;;;;;;11.73;7.15;;;;;;;;;;5082453;28;20048;-67
2023/09/11 04:30:57;;;;;;;9.70;6.57;;;;;;;;;;5081987;28;20071;-66
2023/09/11 04:33:27;;;;;;;11.02;6.18;;;;;;;;;;5087332;28;20139;-63
2023/09/11 04:35:57;;;;;;;10.10;6.93;;;;;;;;;;5083648;28;20109;-65
2023/09/11 04:38:25;;;;;;;10.32;6.40;;;;;;;;;;5087334;28;20497;-66
2023/09/11 04:40:57;;;;;;;11.02;6.90;;;;;;;;;;5085797;28;20044;-65
2023/09/11 04:43:26;;;;;;;12.07;7.07;;;;;;;;;;5079619;28;20056;-64
2023/09/11 04:45:54;;;;;;;11.57;6.40;;;;;;;;;;5086989;28;20470;-64
2023/09/11 04:48:22;;;;;;;13.00;7.57;;;;;;;;;;5084166;28;20125;-63
2023/09/11 04:50:51;;;;;;;11.13;6.88;;;;;;;;;;5080424;28;20059;-65
2023/09/11 04:53:21;;;;;;;10.98;6.45;;;;;;;;;;5085531;28;20048;-66
2023/09/11 04:55:49;;;;;;;12.25;6.75;;;;;;;;;;5083402;28;20040;-63
2023/09/11 04:58:18;;;;;;;12.90;7.07;;;;;;;;;;5084326;28;20413;-64
2023/09/11 05:00:46;;;;;;;12.68;6.50;;;;;;;;;;5078128;28;20355;-63
2023/09/11 05:03:14;;;;;;;12.93;6.80;;;;;;;;;;5081107;28;20389;-66
2023/09/11 05:05:43;;;;;;;13.27;7.07;;;;;;;;;;5085183;28;20048;-68
2023/09/11 05:08:12;;;;;;;11.45;6.75;;;;;;;;;;5081966;28;20345;-64
2023/09/11 05:10:42;;;;;;;16.40;7.28;;;;;;;;;;5074203;28;20048;-63
2023/09/11 05:13:11;;;;;;;14.63;6.40;;;;;;;;;;5081226;28;20469;-66
2023/09/11 05:15:40;;;;;;;9.98;6.22;;;;;;;;;;5079528;28;20634;-64
2023/09/11 05:18:10;;;;;;;10.65;6.18;;;;;;;;;;5073826;28;20048;-70
2023/09/11 05:20:39;;;;;;;13.73;7.38;;;;;;;;;;5073850;28;20415;-63
2023/09/11 05:23:08;;;;;;;10.27;6.53;;;;;;;;;;5075595;28;20121;-63
2023/09/11 05:25:37;;;;;;;12.45;6.72;;;;;;;;;;5079164;28;20432;-66
2023/09/11 05:28:07;;;;;;;10.75;6.97;;;;;;;;;;5081788;28;20059;-66
2023/09/11 05:30:38;;;;;;;13.85;6.75;;;;;;;;;;5078909;28;20044;-67
2023/09/11 05:33:07;;;;;;;16.63;6.65;;;;;;;;;;5075560;28;20485;-64
2023/09/11 05:35:36;;;;;;;11.95;6.80;;;;;;;;;;5077793;28;20136;-66
2023/09/11 05:38:05;;;;;;;12.45;6.82;;;;;;;;;;5070843;28;20131;-66
2023/09/11 05:40:33;;;;;;;11.07;6.68;;;;;;;;;;5075145;28;20048;-63
2023/09/11 05:43:02;;;;;;;11.20;6.70;;;;;;;;;;5076295;28;20047;-63
2023/09/11 05:45:31;;;;;;;11.05;7.13;;;;;;;;;;5074409;28;20055;-69
2023/09/11 05:48:00;;;;;;;11.55;7.35;;;;;;;;;;5079455;28;20109;-65
2023/09/11 05:50:28;;;;;;;11.90;6.95;;;;;;;;;;5077522;28;20047;-68
2023/09/11 05:52:57;;;;;;;12.82;7.72;;;;;;;;;;5083342;28;21215;-63
2023/09/11 05:55:25;;;;;;;13.55;7.03;;;;;;;;;;5079297;28;20052;-63
2023/09/11 05:57:54;;;;;;;13.77;6.68;;;;;;;;;;5081495;28;20047;-65
2023/09/11 06:00:24;;;;;;;14.75;7.45;;;;;;;;;;5079509;28;20117;-69
2023/09/11 06:02:54;;;;;;;11.05;6.95;;;;;;;;;;5076618;28;20153;-64
2023/09/11 06:05:23;;;;;;;12.80;7.35;;;;;;;;;;5075289;28;20036;-69
2023/09/11 06:07:51;;;;;;;14.55;7.70;;;;;;;;;;5073260;28;20052;-65
2023/09/11 06:10:20;;;;;;;13.27;7.97;;;;;;;;;;5069172;28;20055;-69
2023/09/11 06:12:48;;;;;;;11.00;6.88;;;;;;;;;;5074936;28;21285;-68
2023/09/11 06:15:17;;;;;;;12.70;7.05;;;;;;;;;;5076292;28;20044;-66
2023/09/11 06:17:45;;;;;;;14.35;7.25;;;;;;;;;;5078016;28;20048;-66
2023/09/11 06:20:15;;;;;;;18.85;7.38;;;;;;;;;;5079869;28;20510;-65
2023/09/11 06:22:44;;;;;;;11.45;6.88;;;;;;;;;;5079804;28;20036;-67
2023/09/11 06:25:13;;;;;;;12.05;7.18;;;;;;;;;;5075264;28;20051;-70
2023/09/11 06:27:41;;;;;;;16.77;8.00;;;;;;;;;;5075871;28;20501;-67
2023/09/11 06:30:10;;;;;;;11.32;6.85;;;;;;;;;;5071575;28;20056;-66
2023/09/11 06:32:39;;;;;;;14.55;7.60;;;;;;;;;;5078135;28;20360;-65
2023/09/11 06:35:08;;;;;;;14.52;7.80;;;;;;;;;;5076761;28;20109;-70
2023/09/11 06:37:38;;;;;;;13.15;7.65;;;;;;;;;;5082868;28;20101;-71
2023/09/11 06:40:09;;;;;;;12.35;6.97;;;;;;;;;;5080900;28;20169;-68
2023/09/11 06:42:38;;;;;;;13.38;7.85;;;;;;;;;;5079252;28;20051;-68
2023/09/11 06:45:07;;;;;;;13.32;7.93;;;;;;;;;;5074123;28;20504;-66
2023/09/11 06:47:35;;;;;;;15.10;8.05;;;;;;;;;;5077952;28;20121;-68
2023/09/11 06:50:04;;;;;;;13.40;8.30;;;;;;;;;;5070519;28;20515;-69
2023/09/11 06:52:38;;;;;;;19.42;9.55;;;;;;;;;;5076848;28;20040;-68
2023/09/11 06:55:09;;;;;;;14.73;8.55;;;;;;;;;;5081674;28;20059;-68
2023/09/11 06:57:39;;;;;;;13.95;8.20;;;;;;;;;;5081995;28;20044;-67
2023/09/11 07:00:11;;;;;;;17.40;9.57;;;;;;;;;;5078390;28;20585;-66
2023/09/11 07:02:47;;;;;;;14.43;9.20;;;;;;;;;;5078263;28;20076;-66
2023/09/11 07:05:16;;;;;;;14.85;9.18;;;;;;;;;;5072512;28;20707;-67
2023/09/11 07:07:45;;;;;;;20.08;9.68;;;;;;;;;;5077407;28;20047;-64
2023/09/11 07:10:17;;;;;;;15.20;9.93;;;;;;;;;;5085727;28;20109;-66
2023/09/11 07:13:01;;;;;;;15.05;9.43;;;;;;;;;;5076112;28;20425;-64
2023/09/11 07:15:30;;;;;;;16.88;9.93;;;;;;;;;;5075392;28;20102;-68
2023/09/11 07:17:58;;;;;;;17.20;9.57;;;;;;;;;;5077471;28;20773;-71
2023/09/11 07:20:27;;;;;;;17.75;10.27;;;;;;;;;;5080529;28;20075;-68
2023/09/11 07:22:56;;;;;;;15.27;9.57;;;;;;;;;;5083703;28;20031;-65
2023/09/11 07:25:26;;;;;;;15.77;9.93;;;;;;;;;;5083732;28;20048;-67
2023/09/11 07:27:55;;;;;;;20.75;10.02;;;;;;;;;;5082399;28;20108;-65
2023/09/11 07:30:23;;;;;;;15.80;9.18;;;;;;;;;;5082809;28;20059;-70
2023/09/11 07:32:53;;;;;;;18.08;10.13;;;;;;;;;;5078504;28;20048;-65
2023/09/11 07:35:22;;;;;;;15.73;9.75;;;;;;;;;;5081285;28;20154;-66
2023/09/11 07:37:51;;;;;;;19.13;9.40;;;;;;;;;;5078703;28;20374;-72
2023/09/11 07:40:20;;;;;;;15.75;9.55;;;;;;;;;;5083103;28;20135;-66
2023/09/11 07:42:52;;;;;;;19.10;9.57;;;;;;;;;;5083520;28;20040;-71
2023/09/11 07:45:21;;;;;;;21.58;10.68;;;;;;;;;;5083787;28;20055;-70
2023/09/11 07:47:50;;;;;;;18.33;10.40;;;;;;;;;;5083806;28;20052;-67
2023/09/11 07:50:19;;;;;;;16.95;9.35;;;;;;;;;;5081771;28;20059;-68
2023/09/11 07:52:47;;;;;;;13.85;8.93;;;;;;;;;;5079399;28;20121;-65
2023/09/11 07:55:16;;;;;;;15.32;9.65;;;;;;;;;;5081658;28;20072;-67
2023/09/11 07:57:47;;;;;;;15.85;9.13;;;;;;;;;;5079921;28;20039;-65
2023/09/11 08:00:17;;;;;;;16.77;9.60;;;;;;;;;;5083395;28;20531;-65
2023/09/11 08:02:48;;;;;;;15.45;9.20;;;;;;;;;;5083743;28;20044;-66
2023/09/11 08:05:17;;;;;;;20.95;10.15;;;;;;;;;;5080616;28;20036;-67
2023/09/11 08:07:45;;;;;;;18.05;9.68;;;;;;;;;;5082368;28;20184;-65
2023/09/11 08:10:14;;;;;;;13.85;9.13;;;;;;;;;;5078003;28;20049;-65
2023/09/11 08:12:42;;;;;;;16.42;9.35;;;;;;;;;;5073437;28;20051;-70
2023/09/11 08:15:11;;;;;;;12.30;8.65;;;;;;;;;;5075503;28;20044;-65
2023/09/11 08:17:41;;;;;;;14.07;8.98;;;;;;;;;;5070013;28;20075;-63
2023/09/11 08:20:10;;;;;;;13.48;8.45;;;;;;;;;;5076355;28;20072;-64
2023/09/11 08:22:39;;;;;;;14.00;8.20;;;;;;;;;;5081096;28;20056;-67
2023/09/11 08:25:08;;;;;;;12.80;8.57;;;;;;;;;;5078806;28;20044;-65
2023/09/11 08:27:36;;;;;;;12.07;8.20;;;;;;;;;;5074880;28;20149;-66
2023/09/11 08:30:05;;;;;;;13.82;8.60;;;;;;;;;;5074527;28;20051;-64
2023/09/11 08:32:34;;;;;;;12.48;8.25;;;;;;;;;;5077670;28;20451;-72
2023/09/11 08:35:04;;;;;;;12.73;8.07;;;;;;;;;;5076095;28;20113;-63
2023/09/11 08:37:32;;;;;;;13.15;7.82;;;;;;;;;;5082277;28;20172;-64
2023/09/11 08:40:00;;;;;;;11.95;7.72;;;;;;;;;;5072930;28;20043;-70
2023/09/11 08:42:29;;;;;;;11.93;8.35;;;;;;;;;;5073931;28;20044;-66
2023/09/11 08:44:57;;;;;;;14.18;7.78;;;;;;;;;;5076347;28;20045;-67
2023/09/11 08:47:29;;;;;;;12.07;8.38;;;;;;;;;;5080153;28;20405;-69
2023/09/11 08:50:01;;;;;;;14.00;8.43;;;;;;;;;;5079916;28;20274;-72
2023/09/11 08:52:31;;;;;;;8.77;6.88;;;;;;;;;;5074783;28;20048;-74
2023/09/11 08:55:01;;;;;;;11.27;7.07;;;;;;;;;;5074412;28;20044;-72
2023/09/11 08:57:33;;;;;;;10.32;7.43;;;;;;;;;;5078071;28;20566;-74
2023/09/11 09:00:04;;;;;;;9.02;7.45;;;;;;;;;;5086524;28;20076;-74
2023/09/11 09:02:34;;;;;;;9.85;7.25;;;;;;;;;;5077033;28;20325;-75
2023/09/11 09:05:03;;;;;;;9.40;6.93;;;;;;;;;;5080052;28;20051;-74
2023/09/11 09:07:33;;;;;;;13.15;7.30;;;;;;;;;;5083500;28;20060;-75
2023/09/11 09:10:02;;;;;;;10.35;6.82;;;;;;;;;;5071095;28;20056;-75
2023/09/11 09:12:31;;;;;;;8.93;6.53;;;;;;;;;;5079204;28;20540;-75
2023/09/11 09:15:00;;;;;;;8.05;6.25;;;;;;;;;;5080622;28;20484;-75
2023/09/11 09:17:29;;;;;;;11.85;6.95;;;;;;;;;;5081892;28;20121;-74
2023/09/11 09:19:57;;;;;;;10.13;6.38;;;;;;;;;;5078001;28;20735;-75
2023/09/11 09:22:25;;;;;;;11.80;6.90;;;;;;;;;;5079682;28;20052;-75
2023/09/11 09:24:56;;;;;;;9.15;6.75;;;;;;;;;;5081681;28;20055;-74
2023/09/11 09:27:27;;;;;;;11.43;6.55;;;;;;;;;;5079415;28;20488;-75
2023/09/11 09:29:55;;;;;;;9.20;6.55;;;;;;;;;;5079081;28;20136;-75
2023/09/11 09:32:24;;;;;;;9.43;6.55;;;;;;;;;;5080873;28;20175;-75
2023/09/11 09:34:54;;;;;;;8.82;6.53;;;;;;;;;;5071341;28;20463;-74
2023/09/11 09:37:23;;;;;;;12.55;6.18;;;;;;;;;;5078308;28;20420;-75
2023/09/11 09:39:52;;;;;;;11.93;6.25;;;;;;;;;;5075185;28;20071;-76
2023/09/11 09:42:22;;;;;;;8.32;6.20;;;;;;;;;;5079656;28;20552;-74
2023/09/11 09:44:53;;;;;;;11.50;6.03;;;;;;;;;;5077140;28;20055;-76
2023/09/11 09:47:23;;;;;;;9.02;5.28;;;;;;;;;;5069351;28;20048;-76
2023/09/11 09:49:52;;;;;;;11.60;5.35;;;;;;;;;;5081943;28;20048;-75
2023/09/11 09:52:21;;;;;;;7.50;5.60;;;;;;;;;;5078764;28;20566;-75
2023/09/11 09:54:50;;;;;;;9.60;5.82;;;;;;;;;;5077798;28;20049;-76
2023/09/11 09:57:19;;;;;;;8.65;5.95;;;;;;;;;;5079892;28;20664;-75
2023/09/11 09:59:52;;;;;;;10.27;5.95;;;;;;;;;;5076238;28;20514;-76
2023/09/11 10:02:24;;;;;;;8.40;5.65;;;;;;;;;;5077307;28;20036;-77
2023/09/11 10:04:53;;;;;;;8.98;6.10;;;;;;;;;;5081229;28;20036;-75
2023/09/11 10:07:37;;;;;;;9.45;6.35;;;;;;;;;;5077814;28;20048;-68
2023/09/11 10:10:30;;;;;;;9.35;7.03;;;;;;;;;;5075768;28;20094;-69
2023/09/11 10:13:03;;;;;;;9.77;6.05;;;;;;;;;;5056678;28;20047;-72
2023/09/11 10:15:33;;;;;;;7.65;5.65;;;;;;;;;;5075631;28;20059;-68
2023/09/11 10:18:02;;;;;;;10.40;5.82;;;;;;;;;;5077930;28;20044;-66
2023/09/11 10:20:31;;;;;;;8.93;5.60;;;;;;;;;;5081365;28;20056;-70
2023/09/11 10:23:00;;;;;;;6.43;5.10;;;;;;;;;;5082576;28;20051;-71
2023/09/11 10:25:30;;;;;;;7.68;5.43;;;;;;;;;;5085127;28;20040;-69
2023/09/11 10:27:59;;;;;;;9.45;5.25;;;;;;;;;;5076227;28;20121;-69
2023/09/11 10:30:32;;;;;;;7.97;5.43;;;;;;;;;;5080467;28;20121;-68
2023/09/11 10:33:03;;;;;;;8.85;6.00;;;;;;;;;;5078577;28;20109;-69
2023/09/11 10:35:32;;;;;;;8.98;5.90;;;;;;;;;;5076795;28;20550;-71
2023/09/11 10:38:00;;;;;;;6.72;5.32;;;;;;;;;;5082444;28;20063;-70
2023/09/11 10:40:31;;;;;;;8.15;6.10;;;;;;;;;;5079612;28;20556;-69
2023/09/11 10:43:00;;;;;;;9.00;5.57;;;;;;;;;;5073975;28;20041;-73
2023/09/11 10:45:28;;;;;;;8.13;5.20;;;;;;;;;;5072368;28;20040;-68
2023/09/11 10:47:57;;;;;;;7.82;5.57;;;;;;;;;;5077759;28;20040;-71
2023/09/11 10:50:32;;;;;;;7.47;5.38;;;;;;;;;;5079479;28;20527;-67
2023/09/11 10:53:00;;;;;;;8.90;5.07;;;;;;;;;;5082528;28;20070;-68
2023/09/11 10:55:29;;;;;;;7.95;5.65;;;;;;;;;;5076751;28;20549;-70
2023/09/11 10:57:58;;;;;;;6.82;5.30;;;;;;;;;;5072772;28;20056;-76
2023/09/11 11:00:27;;;;;;;7.90;5.80;;;;;;;;;;5082411;28;20131;-69
2023/09/11 11:02:56;;;;;;;8.00;5.60;;;;;;;;;;5077156;28;20044;-71
2023/09/11 11:05:27;;;;;;;9.40;5.63;;;;;;;;;;5076313;28;20076;-70
2023/09/11 11:07:57;;;;;;;8.60;5.68;;;;;;;;;;5083898;28;20036;-67
2023/09/11 11:10:25;;;;;;;9.27;6.13;;;;;;;;;;5070669;28;20087;-67
2023/09/11 11:13:05;;;;;;;7.50;5.68;;;;;;;;;;5075898;28;20044;-71
2023/09/11 11:15:33;;;;;;;8.57;5.45;;;;;;;;;;5068231;28;20154;-68
2023/09/11 11:18:09;;;;;;;7.78;5.43;;;;;;;;;;5081853;28;20370;-66
2023/09/11 11:20:59;;;;;;;7.15;5.75;;;;;;;;;;5072128;28;20131;-67
2023/09/11 11:23:32;;;;;;;7.10;5.32;;;;;;;;;;5082501;28;20438;-67
2023/09/11 11:26:04;;;;;;;8.43;5.57;;;;;;;;;;5072364;28;20230;-72
2023/09/11 11:28:39;;;;;;;7.97;5.28;;;;;;;;;;5073125;28;20044;-73
2023/09/11 11:31:09;;;;;;;6.57;5.60;;;;;;;;;;5071174;28;20063;-74
2023/09/11 11:33:38;;;;;;;6.82;5.18;;;;;;;;;;5078147;28;20047;-70
2023/09/11 11:36:09;;;;;;;6.70;5.43;;;;;;;;;;5078583;28;20052;-69
2023/09/11 11:38:39;;;;;;;6.53;5.72;;;;;;;;;;5065387;28;20060;-68
2023/09/11 11:41:09;;;;;;;7.55;5.78;;;;;;;;;;5073199;28;20071;-69
2023/09/11 11:43:38;;;;;;;7.40;5.82;;;;;;;;;;5081490;28;20119;-69
2023/09/11 11:46:07;;;;;;;7.70;5.65;;;;;;;;;;5071813;28;20528;-70
2023/09/11 11:48:37;;;;;;;7.72;5.70;;;;;;;;;;5082453;28;20156;-70
2023/09/11 11:51:06;;;;;;;11.18;6.25;;;;;;;;;;5080199;28;20044;-68
2023/09/11 11:53:36;;;;;;;8.23;6.05;;;;;;;;;;5075829;28;20505;-68
2023/09/11 11:56:05;;;;;;;6.30;5.15;;;;;;;;;;5079563;28;20405;-70
2023/09/11 11:58:33;;;;;;;6.63;5.22;;;;;;;;;;5080193;28;20064;-75
2023/09/11 12:01:04;;;;;;;7.60;5.45;;;;;;;;;;5079157;28;20093;-72
2023/09/11 12:03:33;;;;;;;6.82;5.18;;;;;;;;;;5082319;28;20047;-67
2023/09/11 12:06:03;;;;;;;8.32;6.18;;;;;;;;;;5075908;28;20109;-68
2023/09/11 12:08:32;;;;;;;6.50;5.05;;;;;;;;;;5085911;28;20058;-69
2023/09/11 12:11:02;;;;;;;7.82;5.85;;;;;;;;;;5077039;28;20067;-73
2023/09/11 12:13:30;;;;;;;10.80;7.25;;;;;;;;;;5079913;28;20067;-74
2023/09/11 12:16:16;;;;;;;10.55;6.57;;;;;;;;;;5070328;28;20071;-73
2023/09/11 12:18:46;;;;;;;11.27;5.68;;;;;;;;;;5072400;28;20051;-69
2023/09/11 12:21:14;;;;;;;8.68;6.35;;;;;;;;;;5071407;28;20436;-67
2023/09/11 12:23:43;;;;;;;8.02;5.68;;;;;;;;;;5078612;28;20051;-67
2023/09/11 12:26:13;;;;;;;7.57;5.85;;;;;;;;;;5083055;28;20036;-71
2023/09/11 12:28:41;;;;;;;9.63;6.40;;;;;;;;;;5075589;28;20040;-70
2023/09/11 12:31:10;;;;;;;8.80;5.80;;;;;;;;;;5072619;28;20052;-74
2023/09/11 12:33:39;;;;;;;10.20;5.97;;;;;;;;;;5081151;28;20048;-69
2023/09/11 12:36:07;;;;;;;9.35;6.55;;;;;;;;;;5079225;28;20646;-76
2023/09/11 12:38:36;;;;;;;9.30;5.63;;;;;;;;;;5080228;28;20051;-65
2023/09/11 12:41:05;;;;;;;7.80;5.80;;;;;;;;;;5078146;28;20135;-74
2023/09/11 12:43:34;;;;;;;10.60;6.32;;;;;;;;;;5076257;28;20067;-68
2023/09/11 12:46:03;;;;;;;12.90;6.22;;;;;;;;;;5079572;28;20044;-69
2023/09/11 12:48:32;;;;;;;7.53;5.88;;;;;;;;;;5081883;28;20063;-68
2023/09/11 12:51:00;;;;;;;8.68;5.68;;;;;;;;;;5080192;28;20358;-72
2023/09/11 12:53:30;;;;;;;9.23;5.90;;;;;;;;;;5073258;28;20125;-73
2023/09/11 12:55:58;;;;;;;9.20;6.03;;;;;;;;;;5079948;28;20056;-73
2023/09/11 12:58:26;;;;;;;7.25;6.00;;;;;;;;;;5076830;28;20051;-70
2023/09/11 13:00:58;;;;;;;8.98;5.88;;;;;;;;;;5075783;28;20101;-69
2023/09/11 13:03:27;;;;;;;8.05;5.68;;;;;;;;;;5073895;28;20131;-68
2023/09/11 13:05:56;;;;;;;7.20;5.80;;;;;;;;;;5076125;28;20059;-69
2023/09/11 13:08:28;;;;;;;8.13;6.25;;;;;;;;;;5077659;28;20072;-69
2023/09/11 13:10:56;;;;;;;9.90;5.93;;;;;;;;;;5074839;28;20076;-70
2023/09/11 13:13:25;;;;;;;8.95;6.28;;;;;;;;;;5077349;28;20213;-68
2023/09/11 13:16:04;;;;;;;7.68;6.18;;;;;;;;;;5076554;28;20075;-70
2023/09/11 13:18:32;;;;;;;7.82;6.03;;;;;;;;;;5079508;28;20044;-68
2023/09/11 13:21:01;;;;;;;7.13;5.93;;;;;;;;;;5075137;28;20047;-69
2023/09/11 13:23:29;;;;;;;6.70;5.47;;;;;;;;;;5083680;28;20078;-71
2023/09/11 13:25:58;;;;;;;7.22;5.47;;;;;;;;;;5079717;28;20140;-70
2023/09/11 13:28:26;;;;;;;7.85;5.97;;;;;;;;;;5073479;28;20141;-80
2023/09/11 13:30:59;;;;;;;9.43;6.13;;;;;;;;;;5071253;28;20044;-76
2023/09/11 13:33:29;;;;;;;7.05;5.20;;;;;;;;;;5074867;28;20093;-69
2023/09/11 13:35:58;;;;;;;7.60;5.93;;;;;;;;;;5074872;28;20052;-79
2023/09/11 13:38:26;;;;;;;8.95;5.78;;;;;;;;;;5080869;28;20126;-69
2023/09/11 13:40:54;;;;;;;9.30;5.60;;;;;;;;;;5078028;28;20075;-70
2023/09/11 13:43:23;;;;;;;7.32;5.68;;;;;;;;;;5083159;28;20105;-79
2023/09/11 13:45:51;;;;;;;7.18;5.53;;;;;;;;;;5082725;28;20032;-71
2023/09/11 13:48:20;;;;;;;9.50;5.30;;;;;;;;;;5085126;28;20040;-76
2023/09/11 13:50:50;;;;;;;7.38;5.28;;;;;;;;;;5080294;28;20055;-70
2023/09/11 13:53:18;;;;;;;6.05;4.75;;;;;;;;;;5077016;28;20052;-76
2023/09/11 13:55:46;;;;;;;6.90;5.28;;;;;;;;;;5085498;28;20087;-69
2023/09/11 13:58:15;;;;;;;8.00;5.43;;;;;;;;;;5083847;28;20051;-72
2023/09/11 14:00:43;;;;;;;10.00;5.70;;;;;;;;;;5088175;28;20052;-70
2023/09/11 14:03:12;;;;;;;7.30;5.28;;;;;;;;;;5083567;28;20048;-70
2023/09/11 14:05:41;;;;;;;8.38;5.50;;;;;;;;;;5087109;28;20045;-66
2023/09/11 14:08:17;;;;;;;6.07;4.88;;;;;;;;;;5082327;28;20036;-73
2023/09/11 14:10:46;;;;;;;6.88;5.18;;;;;;;;;;5071410;28;20151;-69
2023/09/11 14:13:14;;;;;;;8.07;5.50;;;;;;;;;;5082264;28;20051;-69
2023/09/11 14:15:42;;;;;;;10.05;5.45;;;;;;;;;;5081873;28;20131;-72
2023/09/11 14:18:11;;;;;;;7.65;5.50;;;;;;;;;;5082961;28;20145;-72
2023/09/11 14:20:39;;;;;;;6.93;4.93;;;;;;;;;;5084731;28;20092;-72
2023/09/11 14:23:08;;;;;;;7.72;5.00;;;;;;;;;;5078702;28;20049;-76
2023/09/11 14:25:38;;;;;;;6.55;4.93;;;;;;;;;;5079271;28;20072;-76
2023/09/11 14:28:06;;;;;;;7.47;5.10;;;;;;;;;;5081265;28;20247;-72
2023/09/11 14:30:34;;;;;;;8.55;5.38;;;;;;;;;;5085300;28;20133;-71
2023/09/11 14:33:03;;;;;;;8.45;4.93;;;;;;;;;;5084655;28;20056;-73
2023/09/11 14:35:31;;;;;;;9.00;4.75;;;;;;;;;;5077744;28;20079;-74
2023/09/11 14:38:00;;;;;;;8.88;5.00;;;;;;;;;;5083793;28;20481;-72
2023/09/11 14:40:28;;;;;;;5.53;4.63;;;;;;;;;;5081598;28;20048;-73
2023/09/11 14:42:58;;;;;;;8.23;4.97;;;;;;;;;;5084213;28;20047;-72
2023/09/11 14:45:26;;;;;;;8.15;4.80;;;;;;;;;;5079807;28;20048;-73
2023/09/11 14:47:55;;;;;;;7.40;4.90;;;;;;;;;;5078689;28;20048;-74
2023/09/11 14:50:24;;;;;;;7.53;4.70;;;;;;;;;;5077843;28;20455;-73